« 福井空港スカイフェス2014 福井空港 2014/9/21 sun | トップページ | 航空祭前日2 小松飛行場 2014/9/19 fri »

2014/09/22

祭りのあと 小松・福井・金沢・富山 2014/9/21 sun

祭りのあとの淋しさが♪・・

小松航空祭も終わって、北陸はこれからドンドン涼しくなり、厳しい冬に備えることになる。

ブルーインパルスは当日帰投はせず、本日帰還の模様。朝一、福井へ向かう道すがら様子を見てきた。

RJNK 202100Z 18002KT 9999 FEW030 13/11 Q1016

20140921_00rjnk_c781022

ブルーキーパーのC1もお泊り

20140921_01rjnk_bi

6時半過ぎには列線に引き出されて、旅支度中。今週も花巻、浜松と大忙し。安全にミッション遂行を祈ります。

20140921_02rjnk_ja704a

今日から日常が戻ってきます。

JA704A B777-281

20140921_03rjnk_c781022

無事に送り届けてくださいな。

78-1022 C-1 402SQ

20140921_04fukui_n614lg

小松に寄って、もう一箇所寄り道。福井テクノパークにスヌーピーがお泊りしていると聞いて向かっていたのだが・・・

20140921_05fukui_n614lg

ひゃー、チョイ遅かった! テクノパークの入り口まで来て、なにやら音がしたので見上げると今まさに離陸したところだった。この後、小松、金沢、富山と通過して新潟までいったようだ。

N614LG A-60+ LIGHTSHIP AMERICA INC

この後は、福井空港スカイフェス2014 

福井空港を早めに離脱して、北陸道を北進していると、美川辺りからビルのような物体が・・ 白山ICで降りて金沢港によってみる。

20140921_06kanazawa_dp

大浜埠頭にあの「ダイヤモンド・プリンセス」が入港していた。

20140921_07kanazawa_dp

普段コマツの搬出埠頭なのだが、巨大でここしか接岸できないのね。

20140921_08kanazawa_dp

船尾にはイギリス商船旗、スコットランドが独立したらこれも変わったのかな?

20140921_12kanazawa_dp_2

場所を移動して無量寺埠頭に移動。さすがにドデカイ!

20140921_09kanazawa_sks

はい、北陸新幹線車両W7系が陸揚げされていました。今夜の陸送なのですね。

20140921_10kanazawa_sksw726509

読み取れる位置の車両ナンバーは、 W726-509

20140921_11kanazawa_sks

一両だけまだトレーラーヘッドがついていなかった。この後くるんかなぁ。

RJNK 210800Z 01005KT 9999 FEW030 BKN250 23/14 Q1016

20140921_13rjnt_sp

いつもの河原にたどりつくと、測量機が3機駐機中。秋空は測量日和だ。

20140921_14rjnt_ja825a

20140921_15rjnt_ja825a_2

ANA890 RJNT-RJTT JA825A B787-8

やっぱり祭りのあとは、淋しい。

|

« 福井空港スカイフェス2014 福井空港 2014/9/21 sun | トップページ | 航空祭前日2 小松飛行場 2014/9/19 fri »

うみ」カテゴリの記事

てつ」カテゴリの記事

富山空港」カテゴリの記事

小松飛行場」カテゴリの記事

BI」カテゴリの記事

場外」カテゴリの記事

コメント

コメントを書く



(ウェブ上には掲載しません)


コメントは記事投稿者が公開するまで表示されません。



トラックバック


この記事へのトラックバック一覧です: 祭りのあと 小松・福井・金沢・富山 2014/9/21 sun:

« 福井空港スカイフェス2014 福井空港 2014/9/21 sun | トップページ | 航空祭前日2 小松飛行場 2014/9/19 fri »